地図

経路データ

SID SEASON NUMBER BASIN SUBBASIN NAME ISO_TIME NATURE LAT LON WMO_WIND WMO_PRES WMO_AGENCY TRACK_TYPE DIST2LAND LANDFALL IFLAG USA_AGENCY USA_ATCF_ID USA_LAT USA_LON USA_RECORD USA_STATUS USA_WIND USA_PRES USA_SSHS USA_R34_NE USA_R34_SE USA_R34_SW USA_R34_NW USA_R50_NE USA_R50_SE USA_R50_SW USA_R50_NW USA_R64_NE USA_R64_SE USA_R64_SW USA_R64_NW USA_POCI USA_ROCI USA_RMW USA_EYE TOKYO_LAT TOKYO_LON TOKYO_GRADE TOKYO_WIND TOKYO_PRES TOKYO_R50_DIR TOKYO_R50_LONG TOKYO_R50_SHORT TOKYO_R30_DIR TOKYO_R30_LONG TOKYO_R30_SHORT TOKYO_LAND CMA_LAT CMA_LON CMA_CAT CMA_WIND CMA_PRES HKO_LAT HKO_LON HKO_CAT HKO_WIND HKO_PRES NEWDELHI_LAT NEWDELHI_LON NEWDELHI_GRADE NEWDELHI_WIND NEWDELHI_PRES NEWDELHI_CI NEWDELHI_DP NEWDELHI_POCI REUNION_LAT REUNION_LON REUNION_TYPE REUNION_WIND REUNION_PRES REUNION_TNUM REUNION_CI REUNION_RMW REUNION_R34_NE REUNION_R34_SE REUNION_R34_SW REUNION_R34_NW REUNION_R50_NE REUNION_R50_SE REUNION_R50_SW REUNION_R50_NW REUNION_R64_NE REUNION_R64_SE REUNION_R64_SW REUNION_R64_NW BOM_LAT BOM_LON BOM_TYPE BOM_WIND BOM_PRES BOM_TNUM BOM_CI BOM_RMW BOM_R34_NE BOM_R34_SE BOM_R34_SW BOM_R34_NW BOM_R50_NE BOM_R50_SE BOM_R50_SW BOM_R50_NW BOM_R64_NE BOM_R64_SE BOM_R64_SW BOM_R64_NW BOM_ROCI BOM_POCI BOM_EYE BOM_POS_METHOD BOM_PRES_METHOD NADI_LAT NADI_LON NADI_CAT NADI_WIND NADI_PRES WELLINGTON_LAT WELLINGTON_LON WELLINGTON_WIND WELLINGTON_PRES DS824_LAT DS824_LON DS824_STAGE DS824_WIND DS824_PRES TD9636_LAT TD9636_LON TD9636_STAGE TD9636_WIND TD9636_PRES TD9635_LAT TD9635_LON TD9635_WIND TD9635_PRES TD9635_ROCI NEUMANN_LAT NEUMANN_LON NEUMANN_CLASS NEUMANN_WIND NEUMANN_PRES MLC_LAT MLC_LON MLC_CLASS MLC_WIND MLC_PRES USA_GUST BOM_GUST BOM_GUST_PER REUNION_GUST REUNION_GUST_PER USA_SEAHGT USA_SEARAD_NE USA_SEARAD_SE USA_SEARAD_SW USA_SEARAD_NW STORM_SPEED STORM_DIR
1892287N26289 1892 52 NA NA NOT_NAMED 1892-10-13 00:00:00 TS 26.0000 -71.2000 40 hurdat_atl main 566 566 O_____________ hurdat_atl AL081892 26.0000 -71.2000 TS 40 0 7 40
1892287N26289 1892 52 NA NA NOT_NAMED 1892-10-13 03:00:00 TS 26.2501 -70.9652 main 605 605 P_____________ AL081892 26.2501 -70.9652 TS 45 0 7 42
1892287N26289 1892 52 NA NA NOT_NAMED 1892-10-13 06:00:00 TS 26.5000 -70.7000 50 hurdat_atl main 636 636 O_____________ hurdat_atl AL081892 26.5000 -70.7000 TS 50 0 7 46
1892287N26289 1892 52 NA NA NOT_NAMED 1892-10-13 09:00:00 TS 26.7499 -70.3798 main 668 668 P_____________ AL081892 26.7499 -70.3798 TS 55 0 8 51
1892287N26289 1892 52 NA NA NOT_NAMED 1892-10-13 12:00:00 TS 27.0000 -70.0000 60 hurdat_atl main 715 715 O_____________ hurdat_atl AL081892 27.0000 -70.0000 TS 60 0 9 56
1892287N26289 1892 52 NA NA NOT_NAMED 1892-10-13 15:00:00 TS 27.2501 -69.5574 main 763 763 P_____________ AL081892 27.2501 -69.5574 TS 65 1 13 60
1892287N26289 1892 52 NA NA NOT_NAMED 1892-10-13 18:00:00 TS 27.6667 -68.7000 70 hurdat_atl main 846 846 O____________O hurdat_atl AL081892 27.5000 -69.1000 HU 70 1 29.0000 -65.5000 TD 30 16 61
1892287N26289 1892 52 NA NA NOT_NAMED 1892-10-13 21:00:00 TS 28.0125 -67.9919 main 912 912 P____________P AL081892 27.7499 -68.6774 HU 70 1 29.0626 -65.2501 TD 30 13 61
1892287N26289 1892 52 NA NA NOT_NAMED 1892-10-14 00:00:00 TS 28.3000 -67.4000 70 hurdat_atl main 973 973 O____________O hurdat_atl AL081892 28.0000 -68.3000 HU 70 1 29.1000 -65.0000 TD 30 11 61
1892287N26289 1892 52 NA NA NOT_NAMED 1892-10-14 03:00:00 TS 28.5332 -66.9114 main 1021 1021 P____________P AL081892 28.2498 -67.9922 HU 72 1 29.1000 -64.7499 TD 30 8 59
1892287N26289 1892 52 NA NA NOT_NAMED 1892-10-14 06:00:00 TS 28.7000 -66.6333 75 hurdat_atl main 1056 1056 O____________O hurdat_atl AL081892 28.5000 -67.7000 HU 75 1 29.1000 -64.5000 TD 30 6 56
1892287N26289 1892 52 NA NA NOT_NAMED 1892-10-14 09:00:00 TS 28.8783 -66.3265 main 1092 1092 P____________P AL081892 28.7424 -67.3647 HU 77 1 29.1500 -64.2501 TD 30 7 57
1892287N26289 1892 52 NA NA NOT_NAMED 1892-10-14 12:00:00 TS 29.0667 -66.0000 80 hurdat_atl main 1128 1128 O____________O hurdat_atl AL081892 29.0000 -67.0000 HU 80 1 29.2000 -64.0000 TD 30 7 57
1892287N26289 1892 52 NA NA NOT_NAMED 1892-10-14 15:00:00 TS 29.2667 -65.6450 main 1170 1170 P____________P AL081892 29.3001 -66.5926 HU 80 1 29.2000 -63.7499 TD 32 7 57
1892287N26289 1892 52 NA NA NOT_NAMED 1892-10-14 18:00:00 TS 29.4667 -65.3000 80 hurdat_atl main 1182 1182 O____________O hurdat_atl AL081892 29.6000 -66.2000 HU 80 1 29.2000 -63.5000 TS 35 7 55
1892287N26289 1892 52 NA NA NOT_NAMED 1892-10-14 21:00:00 TS 29.6523 -65.0114 main 1191 1191 P____________P AL081892 29.8573 -65.8921 HU 80 1 29.2425 -63.2500 TS 37 6 53
1892287N26289 1892 52 NA NA NOT_NAMED 1892-10-15 00:00:00 TS 29.8333 -64.7333 80 hurdat_atl main 1208 1201 O____________O hurdat_atl AL081892 30.1000 -65.6000 HU 80 1 29.3000 -63.0000 TS 40 6 54
1892287N26289 1892 52 NA NA NOT_NAMED 1892-10-15 03:00:00 TS 30.0216 -64.4242 main 1218 1212 P____________P AL081892 30.3575 -65.2500 HU 80 1 29.3498 -62.7724 TS 45 7 56
1892287N26289 1892 52 NA NA NOT_NAMED 1892-10-15 06:00:00 TS 30.2000 -64.1000 80 hurdat_atl main 1229 1229 O____________O hurdat_atl AL081892 30.6000 -64.9000 HU 80 1 29.4000 -62.5000 TS 50 6 59
1892287N26289 1892 52 NA NA NOT_NAMED 1892-10-15 09:00:00 TS 30.3523 -63.7814 main 1242 1242 P____________P AL081892 30.7997 -64.6145 HU 80 1 29.4576 -62.1151 TS 55 6 62
1892287N26289 1892 52 NA NA NOT_NAMED 1892-10-15 12:00:00 TS 30.5000 -63.4333 80 hurdat_atl main 1268 1268 O____________O hurdat_atl AL081892 31.0000 -64.3000 HU 80 1 29.5000 -61.7000 TS 60 7 65
1892287N26289 1892 52 NA NA NOT_NAMED 1892-10-15 15:00:00 TS 30.6592 -63.0241 main 1290 1290 P____________P AL081892 31.2426 -63.8651 HU 80 1 29.4923 -61.3423 TS 62 8 65
1892287N26289 1892 52 NA NA NOT_NAMED 1892-10-15 18:00:00 TS 30.8333 -62.6000 80 hurdat_atl main 1318 1313 O____________O hurdat_atl AL081892 31.5000 -63.4000 HU 80 1 29.5000 -61.0000 HU 65 8 62
1892287N26289 1892 52 NA NA NOT_NAMED 1892-10-15 21:00:00 TS 31.0281 -62.2140 main 1341 1336 P____________P AL081892 31.7497 -62.9997 HU 77 1 29.5850 -60.6426 HU 70 8 59
1892287N26289 1892 52 NA NA NOT_NAMED 1892-10-16 00:00:00 TS 31.2333 -61.8333 75 hurdat_atl main 1366 1361 O____________O hurdat_atl AL081892 32.0000 -62.6000 HU 75 1 29.7000 -60.3000 HU 75 8 59
1892287N26289 1892 52 NA NA NOT_NAMED 1892-10-16 03:00:00 TS 31.4333 -61.4307 main 1378 1368 P____________P AL081892 32.2500 -62.1499 HU 72 1 29.7999 -59.9924 HU 80 8 60
1892287N26289 1892 52 NA NA NOT_NAMED 1892-10-16 06:00:00 TS 31.6333 -61.0333 70 hurdat_atl main 1377 1360 O____________O hurdat_atl AL081892 32.5000 -61.7000 HU 70 1 29.9000 -59.7000 HU 85 7 58
1892287N26289 1892 52 NA NA NOT_NAMED 1892-10-16 09:00:00 TS 31.8255 -60.6811 main 1363 1350 P____________P AL081892 32.7345 -61.3217 HU 65 1 30.0074 -59.4000 HU 85 7 57
1892287N26289 1892 52 NA NA NOT_NAMED 1892-10-16 12:00:00 TS 32.0333 -60.3000 60 hurdat_atl main 1352 1337 O____________O hurdat_atl AL081892 33.0000 -60.9000 TS 60 0 30.1000 -59.1000 HU 85 8 59
1892287N26289 1892 52 NA NA NOT_NAMED 1892-10-16 15:00:00 TS 32.2606 -59.8397 main 1336 1324 P____________P AL081892 33.3347 -60.3523 TS 55 0 30.1123 -58.8144 HU 85 10 59
1892287N26289 1892 52 NA NA NOT_NAMED 1892-10-16 18:00:00 TS 32.5333 -59.3000 50 hurdat_atl main 1331 1311 O____________O hurdat_atl AL081892 33.7000 -59.7000 TS 50 0 30.2000 -58.5000 HU 85 12 58
1892287N26289 1892 52 NA NA NOT_NAMED 1892-10-16 21:00:00 TS 32.8737 -58.6595 main 1311 1301 P____________P AL081892 34.0580 -58.9353 TS 50 0 30.5051 -58.1079 HU 85 13 57
1892287N26289 1892 52 NA NA NOT_NAMED 1892-10-17 00:00:00 TS 33.2333 -58.0333 50 hurdat_atl main 1309 1292 O____________O hurdat_atl AL081892 34.4000 -58.2000 TS 50 0 30.9000 -57.7000 HU 85 11 53
1892287N26289 1892 52 NA NA NOT_NAMED 1892-10-17 03:00:00 TS 33.5593 -57.5676 main 1287 1276 P____________P AL081892 34.7141 -57.6766 TS 50 0 31.2498 -57.3496 HU 85 10 50
1892287N26289 1892 52 NA NA NOT_NAMED 1892-10-17 06:00:00 TS 33.8667 -57.1333 50 hurdat_atl main 1281 1276 O____________O hurdat_atl AL081892 35.0000 -57.2000 TS 50 0 31.6000 -57.0000 HU 85 10 53
1892287N26289 1892 52 NA NA NOT_NAMED 1892-10-17 09:00:00 TS 34.1448 -56.6194 main 1286 1271 P____________P AL081892 35.2422 -56.6291 TS 50 0 31.9500 -56.5999 HU 87 10 57
1892287N26289 1892 52 NA NA NOT_NAMED 1892-10-17 12:00:00 TS 34.4333 -56.0667 50 hurdat_atl main 1274 1254 O____________O hurdat_atl AL081892 35.5000 -56.0000 TS 50 0 32.3000 -56.2000 HU 90 11 56
1892287N26289 1892 52 NA NA NOT_NAMED 1892-10-17 15:00:00 TS 34.7479 -55.5148 main 1260 1236 P____________P AL081892 35.8272 -55.3221 TS 50 0 32.5892 -55.9001 HU 90 12 54
1892287N26289 1892 52 NA NA NOT_NAMED 1892-10-17 18:00:00 TS 35.1333 -54.9000 50 hurdat_atl main 1239 1211 O____________O hurdat_atl AL081892 36.2000 -54.6000 TS 50 0 33.0000 -55.5000 HU 90 14 52
1892287N26289 1892 52 NA NA NOT_NAMED 1892-10-17 21:00:00 TS 35.6251 -54.1652 main 1215 1168 P____________P AL081892 36.5924 -53.8423 TS 50 0 33.6905 -54.8111 HU 90 16 50
1892287N26289 1892 52 NA NA NOT_NAMED 1892-10-18 00:00:00 MX 36.1667 -53.4000 50 hurdat_atl main 1156 1112 O____________O hurdat_atl AL081892 37.0000 -53.1000 EX 50 -4 34.5000 -54.0000 HU 90 16 48
1892287N26289 1892 52 NA NA NOT_NAMED 1892-10-18 03:00:00 MX 36.6723 -52.7322 main 1102 1049 P____________P AL081892 37.3840 -52.4557 EX 50 -4 35.2488 -53.2850 HU 90 15 47
1892287N26289 1892 52 NA NA NOT_NAMED 1892-10-18 06:00:00 MX 37.2000 -52.0333 50 hurdat_atl main 1050 1002 O____________O hurdat_atl AL081892 37.8000 -51.8000 EX 50 -4 36.0000 -52.5000 HU 90 17 48
1892287N26289 1892 52 NA NA NOT_NAMED 1892-10-18 09:00:00 MX 37.7784 -51.1890 main 992 950 P____________P AL081892 38.2925 -51.0152 EX 50 -4 36.7500 -51.5366 HU 92 18 50
1892287N26289 1892 52 NA NA NOT_NAMED 1892-10-18 12:00:00 MX 38.3667 -50.3000 50 hurdat_atl main 942 904 O____________O hurdat_atl AL081892 38.8000 -50.2000 EX 50 -4 37.5000 -50.5000 HU 95 18 50
1892287N26289 1892 52 NA NA NOT_NAMED 1892-10-18 15:00:00 MX 38.9437 -49.4487 main 910 876 P____________P AL081892 39.2720 -49.4343 EX 50 -4 38.2871 -49.4776 HU 95 17 50
1892287N26289 1892 52 NA NA NOT_NAMED 1892-10-18 18:00:00 MX 39.4667 -48.6333 50 hurdat_atl main 872 858 O____________O hurdat_atl AL081892 39.7000 -48.7000 EX 50 -4 39.0000 -48.5000 HU 95 16 53
1892287N26289 1892 52 NA NA NOT_NAMED 1892-10-18 21:00:00 MX 39.8888 -47.8468 main 862 854 P____________P AL081892 40.0649 -47.9617 EX 50 -4 39.5365 -47.6170 HU 95 14 55
1892287N26289 1892 52 NA NA NOT_NAMED 1892-10-19 00:00:00 MX 40.2667 -47.1333 50 hurdat_atl main 854 849 O____________O hurdat_atl AL081892 40.4000 -47.3000 EX 50 -4 40.0000 -46.8000 HU 95 13 54
1892287N26289 1892 52 NA NA NOT_NAMED 1892-10-19 03:00:00 MX 40.6539 -46.4801 main 847 845 P____________P AL081892 40.7420 -46.7541 EX 50 -4 40.4778 -45.9320 HU 95 12 49
1892287N26289 1892 52 NA NA NOT_NAMED 1892-10-19 06:00:00 MX 41.0667 -45.9333 50 hurdat_atl main 844 828 O____________O hurdat_atl AL081892 41.1000 -46.3000 EX 50 -4 41.0000 -45.2000 HU 95 11 40
1892287N26289 1892 52 NA NA NOT_NAMED 1892-10-19 09:00:00 MX 41.5144 -45.5092 main 834 813 P____________P AL081892 41.4546 -45.8910 EX 47 -4 41.6339 -44.7456 HU 95 11 32
1892287N26289 1892 52 NA NA NOT_NAMED 1892-10-19 12:00:00 MX 42.0333 -45.1333 45 hurdat_atl main 820 795 O____________O hurdat_atl AL081892 41.9000 -45.5000 EX 45 -4 42.3000 -44.4000 HU 95 955 12 27
1892287N26289 1892 52 NA NA NOT_NAMED 1892-10-19 15:00:00 MX 42.6176 -44.7381 main 802 783 P____________P AL081892 42.4902 -45.0281 EX 45 -4 42.8724 -44.1580 HU 92 14 28
1892287N26289 1892 52 NA NA NOT_NAMED 1892-10-19 18:00:00 MX 43.3000 -44.2333 45 hurdat_atl main 790 784 O____________O hurdat_atl AL081892 43.2000 -44.6000 EX 45 -4 43.5000 -43.5000 HU 90 17 33
1892287N26289 1892 52 NA NA NOT_NAMED 1892-10-19 21:00:00 MX 44.0888 -43.4406 main 803 803 P____________P AL081892 43.9922 -44.2250 EX 45 -4 44.2819 -41.8720 HU 87 21 39
1892287N26289 1892 52 NA NA NOT_NAMED 1892-10-20 00:00:00 MX 44.9200 -42.3800 45 hurdat_atl main 832 832 O____________O hurdat_atl AL081892 44.8000 -44.1000 EX 45 -4 45.1000 -39.8000 HU 85 23 46
1892287N26289 1892 52 NA NA NOT_NAMED 1892-10-20 03:00:00 MX 45.6846 -41.1272 main 896 896 P____________P AL081892 45.5283 -44.3753 EX 42 -4 45.8408 -37.8790 HU 82 28 57
1892287N26289 1892 52 NA NA NOT_NAMED 1892-10-20 06:00:00 MX 46.4667 -38.9667 40 hurdat_atl main 1031 1031 O____________O hurdat_atl AL081892 46.2000 -44.9000 EX 40 -4 46.6000 -36.0000 HU 80 51 70
1892287N26289 1892 52 NA NA NOT_NAMED 1892-10-20 09:00:00 TS 47.4537 -34.2248 main 1372 1372 _____________P AL081892 EX -4 47.4537 -34.2248 HU 77 47 67
1892287N26289 1892 52 NA NA NOT_NAMED 1892-10-20 12:00:00 ET 48.3000 -32.5000 main 1472 1456 _____________O 48.3000 -32.5000 EX 75 29 58
1892287N26289 1892 52 NA NA NOT_NAMED 1892-10-20 15:00:00 ET 48.9959 -30.5621 main 1449 1321 _____________P 48.9959 -30.5621 EX 72 27 59
1892287N26289 1892 52 NA NA NOT_NAMED 1892-10-20 18:00:00 ET 49.7000 -29.0000 main 1314 1240 _____________O 49.7000 -29.0000 EX 70 21 43
1892287N26289 1892 52 NA NA NOT_NAMED 1892-10-20 21:00:00 ET 50.5575 -28.3027 main 1237 1198 _____________P 50.5575 -28.3027 EX 70 19 19
1892287N26289 1892 52 NA NA NOT_NAMED 1892-10-21 00:00:00 ET 51.5000 -28.0000 main 1196 1149 _____________O 51.5000 -28.0000 EX 70 20 15
1892287N26289 1892 52 NA NA NOT_NAMED 1892-10-21 03:00:00 ET 52.4498 -27.4984 main 1149 1106 _____________P 52.4498 -27.4984 EX 70 20 18
1892287N26289 1892 52 NA NA NOT_NAMED 1892-10-21 06:00:00 ET 53.4000 -27.0000 main 1104 1057 _____________O 53.4000 -27.0000 EX 70 19 18
1892287N26289 1892 52 NA NA NOT_NAMED 1892-10-21 09:00:00 ET 54.3073 -26.4976 main 1057 969 _____________P 54.3073 -26.4976 EX 70 19 18
1892287N26289 1892 52 NA NA NOT_NAMED 1892-10-21 12:00:00 ET 55.2000 -26.0000 main 969 876 _____________O 55.2000 -26.0000 EX 70 19 18
1892287N26289 1892 52 NA NA NOT_NAMED 1892-10-21 15:00:00 ET 56.0979 -25.5049 main 865 773 _____________P 56.0979 -25.5049 EX 65 19 17
1892287N26289 1892 52 NA NA NOT_NAMED 1892-10-21 18:00:00 ET 57.0000 -25.0000 main 762 _____________O 57.0000 -25.0000 EX 60 19 17

IBTrACS Databaseについて

本データベースは、米国NOAAが公開する1842年以降の世界の熱帯低気圧のベストトラックデータアーカイブInternational Best Track Archive for Climate Stewardship (IBTrACS)を、ウェブで閲覧しやすい形式に変換したものです。

最終更新日:2021-12-06